• Join FlightAware (Why Join?)
  • Login
  • US Flag 
Gobble Gobble! 
03:53PM EST


 

Airport Tracker/Info


-or-


 

Live Flight TrackerFlight Track Log ✈ AWE1628 ✈ 11-Apr-2012 ✈ KMCO - KPHL

Flight Track Log - Related Links

Times and Time Zones

All times are in EDT time to prevent confusion due to time zone crossing. See the AWE1628 flight status page for this flight to view local times or setup timezone preferences in your user account.

Time Position Orientation Groundspeed Altitude Reporting Facility
EDT Latitude Longitude Course Direction KTS MPH feet Rate Location/Type
06:05AM 28.4571 -81.3081 191° South  Level FlightAware Approximate
06:05AM 28.4167 -81.3167 139° Southeast 180 207 900  Level Orlando TRACON
06:07AM 28.3500 -81.2500 16° North 261 300 4,100 2,760 Climbing Orlando TRACON
06:09AM 28.4583 -81.2139 348° North 308 354 10,100 2,580 Climbing Jacksonville Center
06:10AM 28.5336 -81.2314 345° North 301 346 11,700 1,980 Climbing Jacksonville Center
06:11AM 28.6278 -81.2606 347° North 319 367 14,100 2,820 Climbing Jacksonville Center
06:12AM 28.7283 -81.2875 345° North 349 402 17,400 3,000 Climbing Jacksonville Center
06:13AM 28.8311 -81.3189 347° North 366 421 20,100 2,640 Climbing Jacksonville Center
06:14AM 28.9378 -81.3481 359° North 380 437 22,700 2,160 Climbing Jacksonville Center
06:15AM 29.0506 -81.3511 27° Northeast 385 443 24,500 1,740 Climbing Jacksonville Center
06:16AM 29.1625 -81.2850 27° Northeast 401 461 26,200 1,680 Climbing Jacksonville Center
06:17AM 29.2806 -81.2164 25° Northeast 437 503 27,900 1,800 Climbing Jacksonville Center
06:18AM 29.4028 -81.1500 26° Northeast 461 531 29,900 2,100 Climbing Jacksonville Center
06:19AM 29.5167 -81.0861 27° Northeast 466 536 32,200 2,160 Climbing Jacksonville Center
06:20AM 29.6328 -81.0194 27° Northeast 461 531 34,300 2,100 Climbing Jacksonville Center
06:21AM 29.7486 -80.9525 27° Northeast 456 525 36,400 1,500 Climbing Jacksonville Center
06:22AM 29.8603 -80.8881 26° Northeast 451 519 37,400 900 Climbing Jacksonville Center
06:23AM 29.9783 -80.8208 26° Northeast 451 519 38,300 780 Climbing Jacksonville Center
06:24AM 30.0961 -80.7536 26° Northeast 456 525 39,000 300 Climbing Jacksonville Center
06:25AM 30.2100 -80.6883 25° Northeast 461 531 39,000  Level Jacksonville Center
06:26AM 30.3278 -80.6233 27° Northeast 461 531 39,000  Level Jacksonville Center
06:27AM 30.4394 -80.5581 27° Northeast 461 531 39,000  Level Jacksonville Center
06:28AM 30.5508 -80.4925 26° Northeast 456 525 39,000  Level Jacksonville Center
06:29AM 30.6603 -80.4294 27° Northeast 445 512 39,000  Level Jacksonville Center
06:30AM 30.7675 -80.3661 27° Northeast 440 506 39,000  Level Jacksonville Center
06:31AM 30.8789 -80.3003 25° Northeast 440 506 39,000  Level Jacksonville Center
06:32AM 30.9967 -80.2364 28° Northeast 446 513 39,000  Level Jacksonville Center
06:33AM 31.1017 -80.1703 25° Northeast 446 513 39,000  Level Jacksonville Center
06:34AM 31.2194 -80.1061 26° Northeast 446 513 39,000  Level Jacksonville Center
06:35AM 31.3369 -80.0394 27° Northeast 452 520 39,000  Level Jacksonville Center
06:36AM 31.4503 -79.9728 26° Northeast 458 527 39,000  Level Jacksonville Center
06:37AM 31.5636 -79.9083 28° Northeast 458 527 39,000  Level Jacksonville Center
06:38AM 31.6767 -79.8386 26° Northeast 458 527 39,000  Level Jacksonville Center
06:39AM 31.7919 -79.7739 27° Northeast 453 521 39,000  Level Jacksonville Center
06:40AM 31.9031 -79.7064 27° Northeast 453 521 39,000  Level Jacksonville Center
06:41AM 32.0142 -79.6389 26° Northeast 453 521 39,000  Level Jacksonville Center
06:42AM 32.1272 -79.5736 27° Northeast 447 514 39,000  Level Jacksonville Center
06:43AM 32.2381 -79.5056 26° Northeast 447 514 39,000  Level Jacksonville Center
06:44AM 32.3472 -79.4425 27° Northeast 442 509 39,000  Level Jacksonville Center
06:45AM 32.4581 -79.3769 26° Northeast 442 509 39,000  Level Jacksonville Center
06:46AM 32.5669 -79.3133 27° Northeast 442 509 39,000  Level Jacksonville Center
06:47AM 32.6756 -79.2475 27° Northeast 442 509 39,000  Level Jacksonville Center
06:48AM 32.7864 -79.1789 26° Northeast 442 509 39,000  Level Jacksonville Center
06:49AM 32.8950 -79.1150 28° Northeast 442 509 39,000  Level Jacksonville Center
06:50AM 33.0056 -79.0458 28° Northeast 442 509 39,000  Level Jacksonville Center
06:51AM 33.1161 -78.9767 27° Northeast 442 509 39,000  Level Jacksonville Center
06:52AM 33.2289 -78.9072 27° Northeast 442 509 39,000  Level Jacksonville Center
06:53AM 33.3394 -78.8400 26° Northeast 442 509 39,000  Level Jacksonville Center
06:55AM 33.5322 -78.7253 27° Northeast 423 487 39,000  Level Washington Center
06:56AM 33.6444 -78.6572 27° Northeast 434 499 39,000  Level Washington Center
06:57AM 33.7567 -78.5889 28° Northeast 440 506 39,000  Level Washington Center
06:58AM 33.8711 -78.5156 27° Northeast 445 512 39,000  Level Washington Center
06:59AM 33.9856 -78.4444 27° Northeast 445 512 39,000  Level Washington Center
07:00AM 34.1019 -78.3733 26° Northeast 455 524 39,000  Level Washington Center
07:01AM 34.2206 -78.3019 29° Northeast 455 524 39,000  Level Washington Center
07:02AM 34.3347 -78.2253 27° Northeast 460 529 39,000  Level Washington Center
07:03AM 34.4511 -78.1533 28° Northeast 460 529 39,000  Level Washington Center
07:04AM 34.5697 -78.0764 27° Northeast 460 529 39,000  Level Washington Center
07:05AM 34.6964 -77.9969 27° Northeast 460 529 39,000 -720 Level Washington Center
07:06AM 34.8125 -77.9244 29° Northeast 460 529 37,600 -1,440 Descending Washington Center
07:07AM 34.9311 -77.8442 29° Northeast 466 536 36,100 -1,500 Descending Washington Center
07:08AM 35.0431 -77.7686 27° Northeast 466 536 34,600 -1,440 Descending Washington Center
07:09AM 35.1675 -77.6908 28° Northeast 471 542 33,300 -840 Descending Washington Center
07:10AM 35.2856 -77.6150 30° Northeast 476 548 33,000 -180 Descending Washington Center
07:11AM 35.4058 -77.5289 35° Northeast 490 564 33,000  Level Washington Center
07:12AM 35.5203 -77.4319 36° Northeast 501 577 33,000  Level Washington Center
07:13AM 35.6344 -77.3300 35° Northeast 506 582 33,000  Level Washington Center
07:14AM 35.7483 -77.2300 35° Northeast 506 582 33,000  Level Washington Center
07:15AM 35.8539 -77.1372 36° Northeast 506 582 33,000  Level Washington Center
07:16AM 35.9636 -77.0394 36° Northeast 496 571 33,000  Level Washington Center
07:17AM 36.0775 -76.9386 36° Northeast 496 571 33,000  Level Washington Center
07:18AM 36.1914 -76.8378 36° Northeast 496 571 33,000  Level Washington Center
07:19AM 36.3050 -76.7364 36° Northeast 501 577 33,000  Level Washington Center
07:20AM 36.4186 -76.6347 36° Northeast 501 577 33,000 -180 Level Washington Center
07:21AM 36.5300 -76.5356 36° Northeast 496 571 32,700 -900 Descending Washington Center
07:22AM 36.6414 -76.4333 37° Northeast 496 571 31,200 -1,440 Descending Washington Center
07:23AM 36.7653 -76.3153 35° Northeast 501 577 29,900 -1,140 Descending Washington Center
07:24AM 36.8806 -76.2125 24° Northeast 501 577 29,000 -480 Descending Washington Center
07:25AM 37.0039 -76.1433 23° Northeast 487 560 29,000  Level Washington Center
07:26AM 37.1272 -76.0789 31° Northeast 474 545 29,000  Level Washington Center
07:27AM 37.2902 -75.9569 27° Northeast 480 552 29,000  Level FlightAware ADS-B
07:27AM 37.3503 -75.9177 27° Northeast 481 554 29,000  Level FlightAware ADS-B
07:28AM 37.4121 -75.8781 27° Northeast 480 552 29,000  Level FlightAware ADS-B
07:29AM 37.4754 -75.8377 27° Northeast 479 551 29,000  Level FlightAware ADS-B
07:29AM 37.5391 -75.7974 27° Northeast 478 550 29,000  Level FlightAware ADS-B
07:30AM 37.5986 -75.7595 27° Northeast 477 549 29,000  Level FlightAware ADS-B
07:30AM 37.6599 -75.7200 27° Northeast 476 548 29,000  Level FlightAware ADS-B
07:31AM 37.7231 -75.6793 27° Northeast 476 548 29,000  Level FlightAware ADS-B
07:31AM 37.7823 -75.6410 27° Northeast 477 549 29,000  Level FlightAware ADS-B
07:32AM 37.8759 -75.5803 27° Northeast 477 549 29,000  Level FlightAware ADS-B
07:33AM 37.9465 -75.5345 27° Northeast 476 548 29,000  Level FlightAware ADS-B
07:33AM 38.0096 -75.4934 27° Northeast 476 548 29,000  Level FlightAware ADS-B
07:34AM 38.0683 -75.4551 27° Northeast 475 547 29,000 -540 Level FlightAware ADS-B
07:34AM 38.1286 -75.4160 27° Northeast 473 544 28,500 -1,980 Descending FlightAware ADS-B
07:35AM 38.1882 -75.3770 27° Northeast 470 541 27,000 -3,300 Descending FlightAware ADS-B
07:35AM 38.2470 -75.3382 27° Northeast 472 543 25,200 -3,360 Descending FlightAware ADS-B
07:36AM 38.3056 -75.2996 27° Northeast 464 534 23,600 -3,000 Descending FlightAware ADS-B
07:36AM 38.3761 -75.2529 27° Northeast 454 522 21,800 -2,880 Descending FlightAware ADS-B
07:37AM 38.4316 -75.2162 27° Northeast 438 504 20,400 -2,820 Descending FlightAware ADS-B
07:37AM 38.4851 -75.1808 27° Northeast 427 491 19,000 -2,760 Descending FlightAware ADS-B
07:38AM 38.5392 -75.1453 27° Northeast 416 479 17,600 -2,760 Descending FlightAware ADS-B
07:38AM 38.5981 -75.1063 13° North 415 478 16,000 -1,560 Descending FlightAware ADS-B
07:39AM 38.7110 -75.0732 North 401 461 15,100 -600 Descending FlightAware ADS-B
07:40AM 38.7692 -75.0658 North 400 460 15,100 -120 Level FlightAware ADS-B
07:40AM 38.8223 -75.0593 North 401 461 15,000 -660 Descending FlightAware ADS-B
07:41AM 38.8392 -75.0570 North 404 465 14,700 -1,680 Descending FlightAware ADS-B
07:41AM 38.8969 -75.0495 North 397 457 13,900 -1,440 Descending FlightAware ADS-B
07:42AM 38.9538 -75.0416 North 397 457 13,200 -1,260 Descending FlightAware ADS-B
07:42AM 38.9930 -75.0363 North 393 452 12,800 -1,320 Descending FlightAware ADS-B
07:42AM 39.0478 -75.0289 North 388 447 12,100 -1,380 Descending FlightAware ADS-B
07:43AM 39.0971 -75.0224 North 386 444 11,500 -1,260 Descending FlightAware ADS-B
07:43AM 39.1515 -75.0153 North 379 436 10,900 -1,140 Descending FlightAware ADS-B
07:44AM 39.2034 -75.0085 North 368 423 10,400 -720 Descending FlightAware ADS-B
07:44AM 39.2525 -75.0018 North 332 382 10,200 -300 Descending FlightAware ADS-B
07:45AM 39.2966 -74.9959 North 304 350 10,100 -300 Descending FlightAware ADS-B
07:45AM 39.3187 -74.9929 North 291 335 10,000 -720 Descending FlightAware ADS-B
07:46AM 39.3431 -74.9896 North 282 325 9,700 -1,140 Descending FlightAware ADS-B
07:46AM 39.3755 -74.9850 North 275 316 9,200 -1,200 Descending FlightAware ADS-B
07:46AM 39.3949 -74.9822 North 270 311 8,900 -1,200 Descending FlightAware ADS-B
07:46AM 39.4141 -74.9793 North 267 307 8,600 -1,380 Descending FlightAware ADS-B
07:47AM 39.4337 -74.9766 North 264 304 8,200 -960 Descending FlightAware ADS-B
07:47AM 39.4536 -74.9740 North 263 303 8,100 -240 Descending FlightAware ADS-B
07:47AM 39.4720 -74.9716 North 265 305 8,100 -240 Level FlightAware ADS-B
07:48AM 39.4921 -74.9690 North 266 306 8,000 -420 Descending FlightAware ADS-B
07:48AM 39.5120 -74.9666 North 266 306 7,900 -900 Descending FlightAware ADS-B
07:49AM 39.5645 -74.9613 North 263 303 7,100 -1,380 Descending FlightAware ADS-B
07:49AM 39.5839 -74.9592 North 264 304 6,600 -1,680 Descending FlightAware ADS-B
07:49AM 39.6095 -74.9565 North 262 302 6,100 -780 Descending FlightAware ADS-B
07:49AM 39.6308 -74.9542 North 261 300 6,100  Level FlightAware ADS-B
07:50AM 39.6517 -74.9518 North 262 302 6,100 -420 Level FlightAware ADS-B
07:50AM 39.6697 -74.9498 North 258 297 5,900 -1,020 Descending FlightAware ADS-B
07:50AM 39.6879 -74.9477 North 256 295 5,600 -1,440 Descending FlightAware ADS-B
07:50AM 39.7061 -74.9455 North 256 295 5,200 -1,560 Descending FlightAware ADS-B
07:51AM 39.7245 -74.9432 North 254 292 4,800 -1,380 Descending FlightAware ADS-B
07:51AM 39.7427 -74.9410 North 250 288 4,500 -840 Descending FlightAware ADS-B
07:51AM 39.7667 -74.9381 North 239 275 4,300 -660 Descending FlightAware ADS-B
07:52AM 39.7835 -74.9362 North 229 264 4,100 -600 Descending FlightAware ADS-B
07:52AM 39.7997 -74.9341 North 218 251 4,000  Descending FlightAware ADS-B
07:52AM 39.8052 -74.9335 North 212 244 4,100 540 Climbing FlightAware ADS-B
07:52AM 39.8103 -74.9333 356° North 205 236 4,100  Level FlightAware ADS-B
07:52AM 39.8181 -74.9340 352° North 196 226 4,100  Level FlightAware ADS-B
07:52AM 39.8335 -74.9369 351° North 181 208 4,100  Level FlightAware ADS-B
07:53AM 39.8548 -74.9412 351° North 170 196 4,100  Level FlightAware ADS-B
07:53AM 39.8627 -74.9429 346° North 172 198 4,100  Level FlightAware ADS-B
07:53AM 39.8658 -74.9439 339° North 172 198 4,100  Level FlightAware ADS-B
07:53AM 39.8682 -74.9451 330° Northwest 173 199 4,100 -720 Level FlightAware ADS-B
07:53AM 39.8716 -74.9477 317° Northwest 173 199 4,000 -780 Descending FlightAware ADS-B
07:53AM 39.8739 -74.9505 307° West 174 200 4,000 -900 Level FlightAware ADS-B
07:53AM 39.8759 -74.9539 298° West 174 200 3,900 -720 Descending FlightAware ADS-B
07:54AM 39.8774 -74.9576 292° West 174 200 3,900 -780 Level FlightAware ADS-B
07:54AM 39.8785 -74.9612 285° West 173 199 3,800 -1,320 Descending FlightAware ADS-B
07:54AM 39.8817 -74.9766 283° West 171 197 3,500 -1,320 Descending FlightAware ADS-B
07:54AM 39.8845 -74.9923 282° West 171 197 3,100 -1,320 Descending FlightAware ADS-B
07:54AM 39.8872 -75.0090 282° West 171 197 2,800 -1,140 Descending FlightAware ADS-B
07:55AM 39.8900 -75.0255 279° West 172 198 2,500 -1,080 Descending FlightAware ADS-B
07:55AM 39.8922 -75.0433 276° West 172 198 2,200 -720 Descending FlightAware ADS-B
07:55AM 39.8929 -75.0524 272° West 174 200 2,200  Level FlightAware ADS-B
07:55AM 39.8931 -75.0601 264° West 177 204 2,200  Level FlightAware ADS-B
07:55AM 39.8926 -75.0660 258° West 180 207 2,200  Level FlightAware ADS-B
07:55AM 39.8919 -75.0703 255° West 181 208 2,200  Level FlightAware ADS-B
07:56AM 39.8898 -75.0804 257° West 172 198 2,200 -240 Level FlightAware ADS-B
07:56AM 39.8871 -75.0952 256° West 159 183 2,100 -600 Descending FlightAware ADS-B
07:56AM 39.8843 -75.1097 257° West 152 175 1,900 -780 Descending FlightAware ADS-B
07:56AM 39.8821 -75.1224 255° West 138 159 1,700 -840 Descending FlightAware ADS-B
07:56AM 39.8807 -75.1293 255° West 131 151 1,600 -720 Descending FlightAware ADS-B
07:57AM 39.8793 -75.1360 257° West 127 146 1,500 -720 Descending FlightAware ADS-B
07:57AM 39.8771 -75.1484 256° West 132 152 1,300 -780 Descending FlightAware ADS-B
07:57AM 39.8749 -75.1602 257° West 128 147 1,100 -840 Descending FlightAware ADS-B
07:57AM 39.8739 -75.1657 257° West 128 147 1,000 -600 Descending FlightAware ADS-B
07:57AM 39.8723 -75.1746 256° West 129 148 900 -540 Descending FlightAware ADS-B
07:58AM 39.8706 -75.1832 256° West 127 146 800 -780 Descending FlightAware ADS-B
07:58AM 39.8677 -75.1987 256° West 130 150 500 -900 Descending FlightAware ADS-B